createdAt,value
2022-12-27T00:00:16.470Z,4.18
2022-12-27T00:02:43.577Z,2.80
2022-12-27T00:05:12.038Z,2.92
2022-12-27T00:07:38.884Z,2.35
2022-12-27T00:10:07.253Z,2.83
2022-12-27T00:12:34.092Z,2.40
2022-12-27T00:15:01.126Z,3.50
2022-12-27T00:17:28.545Z,3.08
2022-12-27T00:19:55.379Z,3.53
2022-12-27T00:22:22.709Z,2.83
2022-12-27T00:24:49.685Z,3.67
2022-12-27T00:27:16.626Z,3.70
2022-12-27T00:29:43.426Z,2.95
2022-12-27T00:32:10.251Z,3.30
2022-12-27T00:34:37.058Z,3.22
2022-12-27T00:37:03.971Z,3.30
2022-12-27T00:39:30.917Z,3.22
2022-12-27T00:41:57.772Z,3.63
2022-12-27T00:44:24.632Z,3.03
2022-12-27T00:46:51.497Z,3.28
2022-12-27T00:49:18.294Z,3.42
2022-12-27T00:51:45.166Z,3.25
2022-12-27T00:54:12.017Z,4.10
2022-12-27T00:56:38.919Z,3.30
2022-12-27T00:59:06.094Z,3.38
2022-12-27T01:01:35.548Z,3.47
2022-12-27T01:04:03.114Z,3.45
2022-12-27T01:06:32.349Z,3.55
2022-12-27T01:09:01.062Z,4.00
2022-12-27T01:11:28.984Z,3.67
2022-12-27T01:14:01.489Z,3.67
2022-12-27T01:16:29.932Z,4.25
2022-12-27T01:18:57.376Z,4.30
2022-12-27T01:21:26.106Z,3.95
2022-12-27T01:23:53.167Z,4.00
2022-12-27T01:26:22.979Z,4.00
2022-12-27T01:28:50.865Z,3.63
2022-12-27T01:31:27.805Z,4.18
2022-12-27T01:33:56.879Z,4.40
2022-12-27T01:36:26.011Z,4.10
2022-12-27T01:38:53.023Z,3.80
2022-12-27T01:41:42.134Z,3.67
2022-12-27T01:44:39.993Z,3.88
2022-12-27T01:47:12.918Z,3.58
2022-12-27T01:50:07.888Z,3.58
2022-12-27T01:52:43.355Z,3.72
2022-12-27T01:55:36.456Z,4.10
2022-12-27T01:58:09.156Z,4.22
2022-12-27T02:00:36.253Z,4.00
2022-12-27T02:03:06.001Z,4.55
2022-12-27T02:05:34.179Z,4.05
2022-12-27T02:08:19.136Z,4.55
2022-12-27T02:10:46.632Z,3.97
2022-12-27T02:13:15.373Z,4.45
2022-12-27T02:15:42.509Z,4.50
2022-12-27T02:18:09.417Z,4.85
2022-12-27T02:20:57.278Z,4.50
2022-12-27T02:23:42.868Z,5.15
2022-12-27T02:26:32.269Z,5.25
2022-12-27T02:29:11.197Z,4.80
2022-12-27T02:31:45.942Z,4.47
2022-12-27T02:34:22.542Z,4.57
2022-12-27T02:36:53.113Z,4.63
2022-12-27T02:39:22.633Z,5.13
2022-12-27T02:42:08.957Z,5.10
2022-12-27T02:44:55.245Z,4.95
2022-12-27T02:47:42.729Z,5.20
2022-12-27T02:50:31.089Z,5.07
2022-12-27T02:53:26.423Z,4.80
2022-12-27T02:56:48.591Z,5.57
2022-12-27T03:00:01.358Z,5.70
2022-12-27T03:03:20.193Z,5.57
2022-12-27T03:06:40.984Z,6.45
2022-12-27T03:09:10.916Z,6.60
2022-12-27T03:12:05.986Z,5.78
2022-12-27T03:14:57.069Z,5.95
2022-12-27T03:17:32.408Z,5.43
2022-12-27T03:20:22.374Z,4.97
2022-12-27T03:23:09.897Z,5.70
2022-12-27T03:25:38.385Z,6.10
2022-12-27T03:28:32.131Z,5.15
2022-12-27T03:31:42.676Z,6.15
2022-12-27T03:34:31.546Z,5.22
2022-12-27T03:37:27.223Z,6.28
2022-12-27T03:40:39.003Z,5.63
2022-12-27T03:43:15.557Z,5.50
2022-12-27T03:46:14.705Z,5.95
2022-12-27T03:49:06.197Z,5.75
2022-12-27T03:51:38.176Z,5.32
2022-12-27T03:54:15.655Z,6.32
2022-12-27T03:56:42.720Z,6.03
2022-12-27T03:59:12.285Z,6.03
2022-12-27T04:01:39.536Z,6.10
2022-12-27T04:04:06.431Z,6.05
2022-12-27T04:06:33.389Z,5.85
2022-12-27T04:09:18.662Z,5.85
2022-12-27T04:12:04.285Z,6.47
2022-12-27T04:14:49.897Z,6.57
2022-12-27T04:17:35.376Z,7.45
2022-12-27T04:20:21.044Z,7.85
2022-12-27T04:23:06.617Z,7.65
2022-12-27T04:25:51.962Z,7.72
2022-12-27T04:28:37.423Z,7.75
2022-12-27T04:31:23.123Z,7.35
2022-12-27T04:34:08.422Z,8.25
2022-12-27T04:36:35.302Z,7.78
2022-12-27T04:39:02.204Z,8.70
2022-12-27T04:41:47.758Z,8.23
2022-12-27T04:44:33.104Z,8.68
2022-12-27T04:47:18.485Z,9.18
2022-12-27T04:50:03.847Z,8.25
2022-12-27T04:52:49.088Z,9.23
2022-12-27T04:55:20.763Z,9.52
2022-12-27T05:00:34.549Z,9.23
2022-12-27T05:03:04.369Z,9.98
2022-12-27T05:05:31.513Z,9.85
2022-12-27T05:08:28.557Z,11.70
2022-12-27T05:11:14.276Z,10.27
2022-12-27T05:13:59.695Z,9.55
2022-12-27T05:16:41.052Z,12.10
2022-12-27T05:19:10.475Z,12.30
2022-12-27T05:21:38.238Z,11.32
2022-12-27T05:24:23.964Z,25.88
2022-12-27T05:26:50.892Z,38.10
2022-12-27T05:29:17.715Z,39.70
2022-12-27T05:31:44.649Z,33.60
2022-12-27T05:34:11.600Z,18.73
2022-12-27T05:36:38.517Z,18.08
2022-12-27T05:39:05.456Z,15.45
2022-12-27T05:41:32.269Z,13.18
2022-12-27T05:44:04.817Z,11.57
2022-12-27T05:46:33.779Z,11.48
2022-12-27T05:49:00.704Z,10.90
2022-12-27T05:51:27.610Z,12.30
2022-12-27T05:53:54.479Z,10.88
2022-12-27T05:56:22.276Z,10.50
2022-12-27T05:58:52.538Z,9.63
2022-12-27T06:01:19.550Z,9.88
2022-12-27T06:03:46.636Z,9.25
2022-12-27T06:06:14.115Z,8.68
2022-12-27T06:08:41.437Z,7.78
2022-12-27T06:11:10.147Z,7.97
2022-12-27T06:13:38.426Z,7.25
2022-12-27T06:16:07.293Z,6.80
2022-12-27T06:18:36.160Z,6.72
2022-12-27T06:21:11.602Z,6.07
2022-12-27T06:23:41.059Z,6.30
2022-12-27T06:26:09.489Z,5.55
2022-12-27T06:28:36.913Z,5.10
2022-12-27T06:31:03.931Z,5.60
2022-12-27T06:33:31.745Z,5.22
2022-12-27T06:35:58.929Z,4.78
2022-12-27T06:38:25.986Z,4.18
2022-12-27T06:40:52.844Z,5.93
2022-12-27T06:43:19.827Z,4.88
2022-12-27T06:45:56.348Z,4.60
2022-12-27T06:48:23.408Z,4.68
2022-12-27T06:50:50.508Z,4.38
2022-12-27T06:53:17.372Z,6.18
2022-12-27T06:55:44.279Z,6.07
2022-12-27T06:58:12.934Z,4.30
2022-12-27T07:00:41.160Z,4.07
2022-12-27T07:03:08.123Z,4.20
2022-12-27T07:05:36.516Z,3.72
2022-12-27T07:08:03.536Z,3.10
2022-12-27T07:10:30.576Z,2.85
2022-12-27T07:12:57.823Z,3.00
2022-12-27T07:15:24.943Z,3.03
2022-12-27T07:17:51.794Z,2.40
2022-12-27T07:20:18.839Z,2.08
2022-12-27T07:22:45.700Z,2.40
2022-12-27T07:25:12.596Z,2.30
2022-12-27T07:27:39.498Z,2.60
2022-12-27T07:30:07.010Z,2.30
2022-12-27T07:32:33.859Z,2.58
2022-12-27T07:35:00.783Z,3.53
2022-12-27T07:37:27.724Z,2.72
2022-12-27T07:39:54.593Z,3.00
2022-12-27T07:42:21.569Z,2.70
2022-12-27T07:44:48.484Z,2.92
2022-12-27T07:47:15.436Z,3.70
2022-12-27T07:49:42.309Z,2.83
2022-12-27T07:52:09.188Z,4.70
2022-12-27T07:54:36.056Z,3.60
2022-12-27T07:57:02.905Z,3.58
2022-12-27T07:59:29.751Z,3.03
2022-12-27T08:02:06.196Z,2.88
2022-12-27T08:04:35.939Z,3.20
2022-12-27T08:07:16.208Z,3.58
2022-12-27T08:09:44.798Z,3.88
2022-12-27T08:12:13.614Z,3.42
2022-12-27T08:14:41.191Z,3.20
2022-12-27T08:17:16.795Z,4.07
2022-12-27T08:19:43.705Z,3.20
2022-12-27T08:22:11.329Z,3.53
2022-12-27T08:24:38.549Z,3.58
2022-12-27T08:27:05.405Z,3.67
2022-12-27T08:29:32.327Z,3.95
2022-12-27T08:31:59.487Z,3.85
2022-12-27T08:34:26.310Z,3.85
2022-12-27T08:36:55.926Z,5.10
2022-12-27T08:39:23.262Z,4.50
2022-12-27T08:41:51.965Z,4.32
2022-12-27T08:44:18.845Z,4.97
2022-12-27T08:46:45.933Z,6.13
2022-12-27T08:49:13.004Z,4.68
2022-12-27T08:51:41.364Z,3.90
2022-12-27T08:54:10.114Z,6.00
2022-12-27T08:56:37.111Z,4.85
2022-12-27T08:59:04.316Z,4.63
2022-12-27T09:01:31.242Z,4.80
2022-12-27T09:03:58.267Z,4.28
2022-12-27T09:06:27.722Z,4.47
2022-12-27T09:08:56.160Z,5.60
2022-12-27T09:11:29.769Z,6.50
2022-12-27T09:13:59.136Z,5.80
2022-12-27T09:16:30.445Z,3.85
2022-12-27T09:18:59.680Z,3.78
2022-12-27T09:21:29.934Z,3.13
2022-12-27T09:23:56.965Z,3.35
2022-12-27T09:26:26.499Z,3.65
2022-12-27T09:28:54.244Z,3.35
2022-12-27T09:31:22.956Z,3.95
2022-12-27T09:33:50.161Z,3.83
2022-12-27T09:36:19.963Z,3.35
2022-12-27T09:38:47.902Z,3.15
2022-12-27T09:42:25.144Z,3.53
2022-12-27T09:44:16.655Z,3.40
2022-12-27T09:46:57.974Z,4.18
2022-12-27T09:49:36.907Z,3.63
2022-12-27T09:52:18.254Z,4.03
2022-12-27T09:54:45.307Z,4.85
2022-12-27T09:57:21.994Z,3.58
2022-12-27T09:59:52.779Z,3.40
2022-12-27T10:02:25.824Z,4.70
2022-12-27T10:05:19.821Z,3.72
2022-12-27T10:07:47.433Z,3.83
2022-12-27T10:10:20.701Z,3.40
2022-12-27T10:13:06.073Z,4.88
2022-12-27T10:15:52.155Z,5.45
2022-12-27T10:19:03.468Z,4.53
2022-12-27T10:21:34.676Z,3.67
2022-12-27T10:24:05.854Z,5.38
2022-12-27T10:26:33.341Z,4.75
2022-12-27T10:29:04.956Z,3.97
2022-12-27T10:34:00.817Z,3.80
2022-12-27T10:36:31.061Z,4.35
2022-12-27T10:38:58.146Z,4.82
2022-12-27T10:41:33.812Z,5.20
2022-12-27T10:44:00.703Z,5.45
2022-12-27T10:46:33.662Z,6.70
2022-12-27T10:49:24.541Z,7.40
2022-12-27T10:51:54.333Z,5.57
2022-12-27T10:54:23.559Z,6.25
2022-12-27T10:56:50.947Z,6.25
2022-12-27T10:59:31.445Z,6.18
2022-12-27T11:02:04.033Z,5.15
2022-12-27T11:04:31.714Z,5.75
2022-12-27T11:07:04.498Z,5.15
2022-12-27T11:09:50.180Z,5.32
2022-12-27T11:12:19.391Z,4.63
2022-12-27T11:15:06.421Z,5.30
2022-12-27T11:17:43.720Z,4.65
2022-12-27T11:20:29.413Z,5.22
2022-12-27T11:23:10.817Z,4.80
2022-12-27T11:25:46.669Z,7.47
2022-12-27T11:28:32.335Z,10.75
2022-12-27T11:31:26.137Z,5.85
2022-12-27T11:33:54.592Z,3.65
2022-12-27T11:36:37.951Z,4.05
2022-12-27T11:39:05.299Z,4.43
2022-12-27T11:41:40.891Z,3.72
2022-12-27T11:44:17.942Z,4.32
2022-12-27T11:46:58.605Z,4.10
2022-12-27T11:49:52.441Z,3.97
2022-12-27T11:52:40.159Z,3.00
2022-12-27T11:55:44.219Z,3.83
2022-12-27T11:58:25.571Z,3.15
2022-12-27T12:00:56.221Z,4.13
2022-12-27T12:03:41.027Z,2.80
2022-12-27T12:06:13.019Z,3.58
2022-12-27T12:09:00.736Z,3.83
2022-12-27T12:11:55.228Z,4.18
2022-12-27T12:14:58.284Z,3.92
2022-12-27T12:17:49.301Z,3.65
2022-12-27T12:20:50.747Z,4.00
2022-12-27T12:23:48.139Z,5.15
2022-12-27T12:26:22.412Z,4.15
2022-12-27T12:29:22.747Z,5.63
2022-12-27T12:32:10.031Z,5.18
2022-12-27T12:34:55.444Z,4.65
2022-12-27T12:37:38.134Z,4.80
2022-12-27T12:41:02.947Z,4.82
2022-12-27T12:43:58.409Z,4.45
2022-12-27T12:46:48.413Z,5.20
2022-12-27T12:49:30.134Z,5.50
2022-12-27T12:52:21.201Z,5.10
2022-12-27T12:55:12.746Z,5.30
2022-12-27T12:57:42.662Z,5.72
2022-12-27T13:00:42.707Z,5.47
2022-12-27T13:03:28.447Z,5.55
2022-12-27T13:06:43.975Z,5.15
2022-12-27T13:09:38.612Z,5.25
2022-12-27T13:12:16.553Z,5.10
2022-12-27T13:15:07.233Z,6.07
2022-12-27T13:17:55.059Z,5.88
2022-12-27T13:20:48.678Z,6.82
2022-12-27T13:23:40.853Z,6.40
2022-12-27T13:26:24.600Z,5.65
2022-12-27T13:29:25.827Z,6.32
2022-12-27T13:32:18.083Z,7.07
2022-12-27T13:34:51.877Z,7.13
2022-12-27T13:37:40.067Z,5.93
2022-12-27T13:40:34.210Z,4.72
2022-12-27T13:43:45.534Z,3.75
2022-12-27T13:46:42.377Z,3.70
2022-12-27T13:49:52.649Z,4.20
2022-12-27T13:52:31.194Z,4.88
2022-12-27T13:55:19.428Z,5.50
2022-12-27T13:57:58.572Z,5.22
2022-12-27T14:00:34.309Z,5.60
2022-12-27T14:03:44.737Z,5.85
2022-12-27T14:06:50.015Z,7.30
2022-12-27T14:09:35.704Z,4.75
2022-12-27T14:12:34.162Z,4.00
2022-12-27T14:15:05.133Z,4.85
2022-12-27T14:17:48.086Z,5.28
2022-12-27T14:20:36.596Z,5.00
2022-12-27T14:23:18.144Z,4.50
2022-12-27T14:26:08.424Z,5.68
2022-12-27T14:29:12.664Z,4.65
2022-12-27T14:31:51.187Z,3.80
2022-12-27T14:34:39.660Z,4.78
2022-12-27T14:37:16.360Z,5.50
2022-12-27T14:39:49.123Z,5.80
2022-12-27T14:42:37.462Z,7.45
2022-12-27T14:45:22.414Z,7.82
2022-12-27T14:48:13.997Z,6.30
2022-12-27T14:51:41.578Z,7.40
2022-12-27T14:54:01.850Z,6.00
2022-12-27T14:57:02.658Z,7.43
2022-12-27T14:59:37.920Z,6.15
2022-12-27T15:02:41.593Z,5.47
2022-12-27T15:05:55.525Z,5.10
2022-12-27T15:08:25.393Z,5.40
2022-12-27T15:11:10.892Z,6.47
2022-12-27T15:14:07.687Z,4.65
2022-12-27T15:16:43.711Z,4.35
2022-12-27T15:19:19.790Z,6.05
2022-12-27T15:21:57.673Z,5.78
2022-12-27T15:24:43.186Z,5.28
2022-12-27T15:27:37.368Z,5.05
2022-12-27T15:30:22.707Z,5.20
2022-12-27T15:33:26.666Z,5.00
2022-12-27T15:36:01.787Z,5.90
2022-12-27T15:38:54.477Z,6.05
2022-12-27T15:41:52.214Z,6.75
2022-12-27T15:44:35.604Z,6.20
2022-12-27T15:47:02.498Z,6.43
2022-12-27T15:49:32.087Z,10.80
2022-12-27T15:52:07.923Z,7.45
2022-12-27T15:54:53.990Z,6.72
2022-12-27T15:57:23.769Z,5.57
2022-12-27T15:59:53.452Z,4.00
2022-12-27T16:02:32.827Z,4.50
2022-12-27T16:05:09.298Z,5.20
2022-12-27T16:07:45.550Z,7.13
2022-12-27T16:10:35.742Z,8.90
2022-12-27T16:13:11.780Z,5.55
2022-12-27T16:15:48.495Z,5.13
2022-12-27T16:18:20.965Z,4.88
2022-12-27T16:20:59.779Z,5.28
2022-12-27T16:23:53.038Z,5.53
2022-12-27T16:26:31.931Z,4.85
2022-12-27T16:29:14.872Z,4.88
2022-12-27T16:31:49.619Z,5.03
2022-12-27T16:34:30.322Z,6.13
2022-12-27T16:37:01.199Z,4.95
2022-12-27T16:40:07.447Z,6.03
2022-12-27T16:42:58.260Z,7.63
2022-12-27T16:46:03.803Z,6.80
2022-12-27T16:48:30.556Z,6.13
2022-12-27T16:51:13.976Z,7.18
2022-12-27T16:53:49.720Z,5.40
2022-12-27T16:56:32.092Z,4.88
2022-12-27T16:58:59.117Z,4.60
2022-12-27T17:01:26.172Z,5.07
2022-12-27T17:03:54.646Z,4.60
2022-12-27T17:06:36.749Z,5.60
2022-12-27T17:09:09.684Z,6.18
2022-12-27T17:11:51.542Z,5.72
2022-12-27T17:16:58.285Z,5.93
2022-12-27T17:19:55.196Z,7.60
2022-12-27T17:22:23.321Z,6.20
2022-12-27T17:24:58.045Z,6.85
2022-12-27T17:27:39.668Z,6.07
2022-12-27T17:30:41.513Z,4.93
2022-12-27T17:33:23.555Z,6.15
2022-12-27T17:36:28.128Z,6.60
2022-12-27T17:38:58.578Z,4.82
2022-12-27T17:42:19.851Z,4.70
2022-12-27T17:45:05.305Z,4.40
2022-12-27T17:48:08.966Z,4.90
2022-12-27T17:50:37.998Z,5.05
2022-12-27T17:53:43.956Z,4.85
2022-12-27T17:56:29.441Z,4.63
2022-12-27T17:59:07.503Z,6.25
2022-12-27T18:01:47.351Z,6.03
2022-12-27T18:04:22.137Z,5.40
2022-12-27T18:06:53.224Z,7.35
2022-12-27T18:09:33.116Z,7.93
2022-12-27T18:12:00.873Z,7.25
2022-12-27T18:14:31.479Z,7.40
2022-12-27T18:16:58.676Z,8.23
2022-12-27T18:19:31.140Z,13.38
2022-12-27T18:22:00.913Z,11.05
2022-12-27T18:24:33.360Z,7.95
2022-12-27T18:27:05.740Z,6.47
2022-12-27T18:29:34.287Z,6.63
2022-12-27T18:32:05.700Z,5.18
2022-12-27T18:34:56.983Z,5.10
2022-12-27T18:37:25.553Z,4.90
2022-12-27T18:39:56.225Z,4.07
2022-12-27T18:42:40.414Z,4.05
2022-12-27T18:45:09.247Z,3.13
2022-12-27T18:47:40.162Z,5.47
2022-12-27T18:50:18.030Z,5.03
2022-12-27T18:52:51.092Z,4.28
2022-12-27T18:55:26.985Z,4.07
2022-12-27T18:58:20.429Z,4.20
2022-12-27T19:01:00.524Z,3.92
2022-12-27T19:03:28.726Z,6.90
2022-12-27T19:06:04.018Z,4.80
2022-12-27T19:08:43.995Z,4.68
2022-12-27T19:11:24.451Z,5.00
2022-12-27T19:13:55.201Z,5.22
2022-12-27T19:16:31.718Z,5.43
2022-12-27T19:19:08.889Z,4.75
2022-12-27T19:21:38.564Z,6.00
2022-12-27T19:24:32.428Z,5.43
2022-12-27T19:27:13.804Z,4.75
2022-12-27T19:29:53.336Z,4.53
2022-12-27T19:32:31.624Z,4.63
2022-12-27T19:35:01.243Z,5.20
2022-12-27T19:37:30.654Z,4.47
2022-12-27T19:39:58.730Z,4.63
2022-12-27T19:42:34.889Z,4.63
2022-12-27T19:45:02.109Z,5.50
2022-12-27T19:47:28.956Z,4.03
2022-12-27T19:49:55.745Z,5.10
2022-12-27T19:52:25.749Z,5.03
2022-12-27T19:55:04.529Z,4.88
2022-12-27T19:57:31.452Z,4.93
2022-12-27T19:59:58.253Z,5.63
2022-12-27T20:02:25.344Z,5.10
2022-12-27T20:04:52.366Z,7.28
2022-12-27T20:07:24.544Z,7.22
2022-12-27T20:09:51.612Z,8.82
2022-12-27T20:12:18.536Z,11.25
2022-12-27T20:14:45.542Z,7.20
2022-12-27T20:17:12.410Z,6.43
2022-12-27T20:19:39.244Z,6.05
2022-12-27T20:22:06.074Z,5.97
2022-12-27T20:24:35.059Z,6.55
2022-12-27T20:27:01.971Z,5.47
2022-12-27T20:29:30.305Z,4.68
2022-12-27T20:31:58.196Z,5.25
2022-12-27T20:34:25.129Z,4.32
2022-12-27T20:36:55.098Z,5.07
2022-12-27T20:39:22.279Z,4.95
2022-12-27T20:41:49.174Z,4.80
2022-12-27T20:44:16.115Z,5.53
2022-12-27T20:46:42.960Z,4.97
2022-12-27T20:49:09.829Z,6.82
2022-12-27T20:51:37.275Z,6.10
2022-12-27T20:54:04.325Z,6.85
2022-12-27T20:56:31.861Z,6.53
2022-12-27T20:58:58.822Z,5.47
2022-12-27T21:01:26.822Z,6.53
2022-12-27T21:03:56.073Z,5.35
2022-12-27T21:06:28.504Z,5.38
2022-12-27T21:08:57.619Z,4.50
2022-12-27T21:11:32.524Z,4.82
2022-12-27T21:14:02.001Z,4.80
2022-12-27T21:16:31.597Z,4.50
2022-12-27T21:19:02.792Z,4.25
2022-12-27T21:21:29.915Z,4.57
2022-12-27T21:23:58.721Z,4.35
2022-12-27T21:26:31.382Z,3.53
2022-12-27T21:28:59.811Z,4.13
2022-12-27T21:31:27.269Z,3.78
2022-12-27T21:33:54.227Z,2.90
2022-12-27T21:36:24.795Z,3.10
2022-12-27T21:38:52.960Z,2.60
2022-12-27T21:41:22.203Z,3.40
2022-12-27T21:43:49.951Z,3.33
2022-12-27T21:46:23.329Z,2.55
2022-12-27T21:49:04.741Z,2.83
2022-12-27T21:51:32.944Z,3.17
2022-12-27T21:54:00.013Z,2.85
2022-12-27T21:56:27.485Z,2.83
2022-12-27T21:58:57.625Z,3.42
2022-12-27T22:01:50.714Z,2.83
2022-12-27T22:04:18.616Z,3.47
2022-12-27T22:06:47.605Z,3.28
2022-12-27T22:09:15.335Z,2.83
2022-12-27T22:11:42.335Z,2.85
2022-12-27T22:14:09.182Z,2.83
2022-12-27T22:16:38.754Z,2.53
2022-12-27T22:19:07.203Z,2.78
2022-12-27T22:21:37.742Z,5.22
2022-12-27T22:24:05.598Z,3.85
2022-12-27T22:26:35.217Z,3.40
2022-12-27T22:29:02.327Z,3.00
2022-12-27T22:31:32.904Z,2.67
2022-12-27T22:33:59.838Z,3.20
2022-12-27T22:36:27.220Z,3.38
2022-12-27T22:38:58.405Z,3.40
2022-12-27T22:41:31.062Z,3.90
2022-12-27T22:44:03.853Z,3.58
2022-12-27T22:46:51.176Z,3.38
2022-12-27T22:49:18.288Z,4.10
2022-12-27T22:51:45.647Z,4.20
2022-12-27T22:54:12.571Z,3.15
2022-12-27T22:56:41.588Z,2.90
2022-12-27T22:59:11.552Z,3.38
2022-12-27T23:01:39.858Z,3.50
2022-12-27T23:04:07.858Z,3.50
2022-12-27T23:06:36.067Z,3.88
2022-12-27T23:09:03.637Z,2.92
2022-12-27T23:11:33.290Z,3.22
2022-12-27T23:14:05.492Z,2.10
2022-12-27T23:16:37.842Z,2.60
2022-12-27T23:19:05.319Z,3.67
2022-12-27T23:21:32.395Z,2.75
2022-12-27T23:23:59.277Z,3.03
2022-12-27T23:26:26.948Z,2.65
2022-12-27T23:28:54.244Z,3.35
2022-12-27T23:31:22.742Z,2.83
2022-12-27T23:33:49.689Z,2.30
2022-12-27T23:36:16.679Z,2.60
2022-12-27T23:38:43.909Z,2.30
2022-12-27T23:41:22.717Z,2.30
2022-12-27T23:43:52.764Z,1.88
2022-12-27T23:46:25.092Z,2.20
2022-12-27T23:51:19.344Z,1.88
2022-12-27T23:53:46.353Z,2.58
2022-12-27T23:56:23.310Z,2.20
2022-12-27T23:58:51.942Z,2.22
